Time;durP1;ratioP1;P1;durP2;ratioP2;P2;SDS_P1;SDS_P2;PMS_P1;PMS_P2;Temp;Humidity;BMP_temperature;BMP_pressure;BME280_temperature;BME280_humidity;BME280_pressure;Samples;Min_cycle;Max_cycle;Signal;HPM_P1;HPM_P2
2021/01/24 00:00:54;;;;;;;11.90;7.88;;;19.20;45.90;;;;;;5016641;28;20049;-39
2021/01/24 00:03:24;;;;;;;13.05;8.15;;;19.20;45.90;;;;;;5025645;28;20547;-40
2021/01/24 00:05:51;;;;;;;13.30;8.75;;;19.10;45.80;;;;;;5024395;28;20057;-41
2021/01/24 00:08:18;;;;;;;12.07;8.30;;;19.10;45.80;;;;;;5019840;28;20145;-38
2021/01/24 00:10:45;;;;;;;14.30;8.48;;;19.10;45.80;;;;;;5018997;28;20080;-39
2021/01/24 00:13:11;;;;;;;11.75;7.90;;;19.10;45.80;;;;;;5017427;28;20054;-39
2021/01/24 00:15:38;;;;;;;12.15;8.18;;;19.10;45.90;;;;;;5019959;28;20053;-37
2021/01/24 00:18:05;;;;;;;10.98;8.07;;;19.10;45.80;;;;;;5019490;28;20128;-42
2021/01/24 00:20:31;;;;;;;12.10;8.30;;;19.10;45.80;;;;;;5017530;28;20046;-41
2021/01/24 00:22:58;;;;;;;12.00;8.63;;;19.10;45.80;;;;;;5024441;28;20041;-40
2021/01/24 00:25:25;;;;;;;11.52;8.13;;;19.10;45.80;;;;;;5027510;28;20046;-38
2021/01/24 00:27:52;;;;;;;11.85;8.00;;;19.10;45.80;;;;;;5028679;28;20493;-40
2021/01/24 00:30:19;;;;;;;13.07;8.15;;;19.10;45.80;;;;;;5027755;28;20464;-44
2021/01/24 00:32:46;;;;;;;11.88;7.85;;;19.10;45.90;;;;;;5018512;28;20045;-37
2021/01/24 00:35:13;;;;;;;14.40;8.10;;;19.20;45.90;;;;;;5019999;28;20053;-37
2021/01/24 00:37:41;;;;;;;11.32;7.28;;;19.10;45.80;;;;;;5024513;28;20061;-39
2021/01/24 00:40:08;;;;;;;12.45;8.55;;;19.10;45.90;;;;;;5027021;28;20052;-38
2021/01/24 00:42:37;;;;;;;11.60;7.72;;;19.10;45.80;;;;;;5017842;28;20494;-42
2021/01/24 00:45:08;;;;;;;12.10;7.78;;;19.10;45.80;;;;;;5025006;28;20042;-38
2021/01/24 00:47:35;;;;;;;12.05;7.47;;;19.10;45.80;;;;;;5018190;28;20099;-38
2021/01/24 00:50:05;;;;;;;12.60;7.82;;;19.10;45.90;;;;;;5016269;28;20129;-39
2021/01/24 00:52:31;;;;;;;12.65;8.07;;;19.10;45.80;;;;;;5022045;28;20056;-38
2021/01/24 00:54:58;;;;;;;12.32;7.80;;;19.10;45.90;;;;;;5024678;28;20095;-37
2021/01/24 00:57:25;;;;;;;11.93;8.05;;;19.10;45.80;;;;;;5023034;28;20049;-40
2021/01/24 00:59:52;;;;;;;11.65;7.75;;;19.10;45.80;;;;;;5024532;28;20049;-38
2021/01/24 01:02:18;;;;;;;13.40;8.38;;;19.10;45.90;;;;;;5031164;28;20042;-38
2021/01/24 01:04:45;;;;;;;11.45;7.75;;;19.10;45.80;;;;;;5025748;28;20081;-38
2021/01/24 01:07:12;;;;;;;11.95;7.65;;;19.20;45.90;;;;;;5024044;28;20494;-40
2021/01/24 01:09:39;;;;;;;11.15;7.68;;;19.10;45.80;;;;;;5023501;28;20460;-40
2021/01/24 01:12:06;;;;;;;11.65;8.02;;;19.10;46.40;;;;;;5017668;28;20096;-38
2021/01/24 01:14:32;;;;;;;11.93;7.50;;;19.10;45.80;;;;;;5022154;28;20119;-38
2021/01/24 01:16:59;;;;;;;13.20;8.75;;;19.10;45.80;;;;;;5021183;28;20113;-38
2021/01/24 01:19:25;;;;;;;11.23;7.55;;;19.10;45.80;;;;;;5021499;28;20046;-37
2021/01/24 01:21:52;;;;;;;11.13;7.47;;;19.10;45.80;;;;;;5024604;28;20093;-38
2021/01/24 01:24:19;;;;;;;12.45;7.90;;;19.10;45.80;;;;;;5032251;28;20046;-39
2021/01/24 01:26:45;;;;;;;11.77;8.13;;;19.10;45.80;;;;;;5023379;28;20065;-39
2021/01/24 01:29:12;;;;;;;11.93;7.90;;;19.10;45.80;;;;;;5019985;28;20457;-38
2021/01/24 01:31:39;;;;;;;11.00;7.80;;;19.10;45.90;;;;;;5020729;28;20060;-38
2021/01/24 01:34:05;;;;;;;12.25;7.43;;;19.10;45.80;;;;;;5027520;28;20053;-38
2021/01/24 01:36:33;;;;;;;11.60;7.45;;;19.10;45.80;;;;;;5023569;28;20612;-37
2021/01/24 01:39:00;;;;;;;13.25;8.00;;;19.10;45.80;;;;;;5025121;28;20045;-41
2021/01/24 01:41:34;;;;;;;13.40;7.82;;;19.10;45.80;;;;;;5028538;28;20111;-37
2021/01/24 01:44:02;;;;;;;13.05;8.00;;;19.10;45.80;;;;;;5029810;28;20085;-39
2021/01/24 01:46:29;;;;;;;10.90;7.75;;;19.10;45.80;;;;;;5041614;28;20053;-38
2021/01/24 01:48:58;;;;;;;11.48;7.35;;;19.10;45.80;;;;;;5022082;28;20421;-40
2021/01/24 01:51:26;;;;;;;10.68;7.40;;;19.10;45.80;;;;;;5024626;28;20050;-38
2021/01/24 01:53:55;;;;;;;11.98;7.93;;;19.10;45.80;;;;;;5023216;28;20054;-38
2021/01/24 01:56:22;;;;;;;11.43;7.10;;;19.10;45.80;;;;;;5025791;28;20463;-37
2021/01/24 01:58:50;;;;;;;10.73;7.18;;;19.10;45.80;;;;;;5023378;28;20041;-39
2021/01/24 02:01:35;;;;;;;10.82;7.25;;;19.10;45.80;;;;;;5022196;28;20040;-38
2021/01/24 02:04:07;;;;;;;10.25;7.25;;;19.10;45.80;;;;;;5025422;28;20050;-38
2021/01/24 02:06:54;;;;;;;11.70;7.13;;;19.10;45.80;;;;;;5025746;28;20057;-38
2021/01/24 02:09:32;;;;;;;10.95;7.35;;;19.10;45.80;;;;;;5027677;28;20095;-41
2021/01/24 02:12:21;;;;;;;11.45;7.80;;;19.10;45.80;;;;;;5029703;28;20497;-38
2021/01/24 02:14:56;;;;;;;9.57;6.85;;;19.10;45.70;;;;;;5020818;28;20127;-40
2021/01/24 02:17:25;;;;;;;11.20;7.13;;;19.10;45.70;;;;;;5027254;28;20088;-42
2021/01/24 02:19:58;;;;;;;11.35;7.25;;;19.10;45.80;;;;;;5025969;28;20041;-40
2021/01/24 02:22:28;;;;;;;11.18;7.43;;;19.10;45.80;;;;;;5023657;28;20046;-39
2021/01/24 02:25:02;;;;;;;10.85;7.55;;;19.10;45.80;;;;;;5021542;28;20448;-38
2021/01/24 02:27:32;;;;;;;11.43;7.88;;;19.10;45.80;;;;;;5018571;28;20469;-40
2021/01/24 02:30:30;;;;;;;10.20;7.07;;;19.10;45.70;;;;;;5017979;28;20073;-38
2021/01/24 02:33:06;;;;;;;10.13;7.18;;;19.10;45.70;;;;;;5019325;28;20045;-38
2021/01/24 02:35:38;;;;;;;10.00;6.97;;;19.10;45.70;;;;;;5024412;28;20077;-39
2021/01/24 02:38:06;;;;;;;10.52;6.95;;;19.10;45.70;;;;;;5019053;28;20049;-38
2021/01/24 02:40:37;;;;;;;10.60;7.47;;;19.10;45.70;;;;;;5029605;28;20085;-42
2021/01/24 02:43:07;;;;;;;10.88;7.30;;;19.10;45.70;;;;;;5023933;28;20080;-39
2021/01/24 02:45:35;;;;;;;11.77;7.47;;;19.10;45.80;;;;;;5027249;28;20568;-38
2021/01/24 02:48:04;;;;;;;11.80;7.30;;;19.10;45.70;;;;;;5027318;28;20124;-39
2021/01/24 02:50:32;;;;;;;10.73;7.18;;;19.10;45.70;;;;;;5020280;28;20084;-38
2021/01/24 02:53:00;;;;;;;9.50;6.72;;;19.10;45.70;;;;;;5024114;28;20049;-39
2021/01/24 02:55:28;;;;;;;9.10;6.32;;;19.10;45.70;;;;;;5021831;28;20045;-39
2021/01/24 02:57:56;;;;;;;10.27;6.72;;;19.00;45.60;;;;;;5020345;28;20465;-40
2021/01/24 03:00:24;;;;;;;9.93;6.70;;;19.00;45.60;;;;;;5018831;28;20049;-39
2021/01/24 03:02:51;;;;;;;10.73;7.20;;;19.00;45.70;;;;;;5018928;28;20041;-39
2021/01/24 03:05:18;;;;;;;11.02;6.97;;;19.00;45.70;;;;;;5018852;28;20081;-38
2021/01/24 03:07:46;;;;;;;11.60;7.57;;;19.00;45.70;;;;;;5021940;28;20046;-38
2021/01/24 03:10:14;;;;;;;9.30;6.80;;;19.00;45.60;;;;;;5023898;28;20084;-40
2021/01/24 03:12:53;;;;;;;10.27;7.10;;;19.00;45.60;;;;;;5027459;28;20124;-39
2021/01/24 03:15:22;;;;;;;10.60;6.60;;;19.00;45.70;;;;;;5027423;28;20050;-40
2021/01/24 03:17:49;;;;;;;11.43;7.05;;;19.00;45.70;;;;;;5019165;28;20041;-43
2021/01/24 03:20:18;;;;;;;10.65;6.70;;;19.00;45.60;;;;;;5022618;28;20461;-44
2021/01/24 03:22:46;;;;;;;11.82;7.32;;;19.10;45.70;;;;;;5016530;28;20100;-41
2021/01/24 03:25:15;;;;;;;10.13;6.18;;;19.00;45.60;;;;;;5020791;28;20037;-41
2021/01/24 03:27:45;;;;;;;9.80;6.47;;;19.00;45.60;;;;;;5020183;28;20054;-39
2021/01/24 03:30:13;;;;;;;10.27;7.10;;;19.00;45.60;;;;;;5019781;28;20053;-42
2021/01/24 03:32:41;;;;;;;8.85;6.25;;;19.00;45.60;;;;;;5023423;28;20053;-38
2021/01/24 03:35:08;;;;;;;8.85;6.43;;;19.00;45.70;;;;;;5023547;28;20058;-42
2021/01/24 03:37:35;;;;;;;11.38;7.28;;;19.00;45.60;;;;;;5021253;28;20485;-44
2021/01/24 03:40:02;;;;;;;9.18;6.57;;;19.00;45.60;;;;;;5022703;28;20049;-41
2021/01/24 03:42:30;;;;;;;8.95;6.43;;;19.00;45.60;;;;;;5020799;28;20056;-41
2021/01/24 03:44:56;;;;;;;9.50;6.43;;;19.00;45.60;;;;;;5020509;28;20049;-40
2021/01/24 03:47:23;;;;;;;10.68;7.05;;;19.00;45.60;;;;;;5015075;28;20081;-40
2021/01/24 03:49:50;;;;;;;9.30;6.47;;;19.00;45.60;;;;;;5021530;28;20065;-43
2021/01/24 03:52:16;;;;;;;8.68;6.15;;;19.00;45.60;;;;;;5019469;28;20064;-45
2021/01/24 03:54:43;;;;;;;10.48;7.20;;;19.00;45.60;;;;;;5026386;28;20077;-38
2021/01/24 03:57:09;;;;;;;10.00;6.57;;;19.00;45.70;;;;;;5020191;28;20124;-42
2021/01/24 03:59:38;;;;;;;10.82;6.90;;;19.00;45.60;;;;;;5017994;28;20046;-39
2021/01/24 04:02:07;;;;;;;9.27;6.55;;;19.00;45.70;;;;;;5027722;28;20052;-38
2021/01/24 04:04:33;;;;;;;9.38;6.53;;;19.00;45.60;;;;;;5021706;28;20042;-44
2021/01/24 04:07:00;;;;;;;10.80;6.35;;;19.00;45.60;;;;;;5020724;28;20054;-39
2021/01/24 04:09:27;;;;;;;9.70;6.57;;;19.00;45.60;;;;;;5020574;28;20057;-39
2021/01/24 04:11:53;;;;;;;9.77;6.32;;;19.00;45.60;;;;;;5024876;28;20461;-39
2021/01/24 04:14:20;;;;;;;10.02;6.65;;;19.00;46.20;;;;;;5027445;28;20058;-38
2021/01/24 04:16:47;;;;;;;9.75;6.32;;;19.00;45.60;;;;;;5027149;28;20103;-40
2021/01/24 04:19:13;;;;;;;10.30;7.05;;;19.00;45.70;;;;;;5026263;28;20088;-41
2021/01/24 04:21:40;;;;;;;9.10;6.32;;;19.00;45.60;;;;;;5023890;28;20096;-40
2021/01/24 04:24:07;;;;;;;9.18;6.78;;;19.00;45.70;;;;;;5021848;28;20042;-41
2021/01/24 04:26:34;;;;;;;9.32;6.18;;;19.00;45.70;;;;;;5024883;28;20080;-39
2021/01/24 04:29:00;;;;;;;9.98;6.70;;;19.00;45.70;;;;;;5027725;28;20413;-39
2021/01/24 04:31:27;;;;;;;9.95;6.88;;;19.00;45.70;;;;;;5025126;28;20052;-38
2021/01/24 04:33:54;;;;;;;8.93;6.20;;;19.00;45.60;;;;;;5022198;28;20112;-39
2021/01/24 04:36:21;;;;;;;9.48;6.50;;;19.00;45.70;;;;;;5026823;28;20065;-38
2021/01/24 04:38:47;;;;;;;10.38;6.68;;;18.90;45.50;;;;;;5023585;28;20045;-39
2021/01/24 04:41:15;;;;;;;8.73;6.13;;;18.90;45.60;;;;;;5023285;28;20493;-38
2021/01/24 04:43:41;;;;;;;9.80;6.35;;;18.90;45.60;;;;;;5021420;28;20042;-39
2021/01/24 04:46:09;;;;;;;8.52;5.80;;;18.90;45.50;;;;;;5019736;28;20041;-38
2021/01/24 04:48:35;;;;;;;8.32;6.15;;;18.90;45.50;;;;;;5027429;28;20080;-38
2021/01/24 04:51:03;;;;;;;8.73;5.85;;;19.00;45.60;;;;;;5026049;28;20042;-40
2021/01/24 04:53:31;;;;;;;8.68;6.00;;;18.90;45.60;;;;;;5025990;28;20587;-41
2021/01/24 04:55:58;;;;;;;9.40;6.47;;;18.90;45.50;;;;;;5022804;28;20053;-40
2021/01/24 04:58:25;;;;;;;8.38;6.07;;;18.90;45.60;;;;;;5029249;28;20073;-38
2021/01/24 05:00:51;;;;;;;8.55;6.00;;;18.90;45.60;;;;;;5027610;28;20068;-38
2021/01/24 05:03:18;;;;;;;8.13;5.75;;;18.90;45.60;;;;;;5021639;28;20041;-39
2021/01/24 05:05:45;;;;;;;8.48;6.28;;;18.90;45.60;;;;;;5018790;28;20046;-38
2021/01/24 05:08:11;;;;;;;8.90;6.15;;;18.90;45.60;;;;;;5029834;28;20053;-38
2021/01/24 05:10:38;;;;;;;9.18;6.15;;;18.90;45.60;;;;;;5024494;28;20049;-38
2021/01/24 05:13:05;;;;;;;8.60;5.93;;;18.90;45.60;;;;;;5019326;28;20104;-38
2021/01/24 05:15:35;;;;;;;9.35;6.30;;;18.90;45.60;;;;;;5022833;28;20084;-39
2021/01/24 05:18:03;;;;;;;9.13;5.68;;;18.90;45.60;;;;;;5021318;28;20092;-39
2021/01/24 05:20:32;;;;;;;8.75;6.03;;;18.90;45.60;;;;;;5022917;28;20554;-39
2021/01/24 05:23:02;;;;;;;9.95;6.65;;;18.90;45.50;;;;;;5026411;28;20038;-38
2021/01/24 05:25:31;;;;;;;8.93;6.00;;;18.90;45.50;;;;;;5022131;28;20698;-38
2021/01/24 05:28:15;;;;;;;9.05;5.80;;;18.90;45.50;;;;;;5024876;28;20509;-38
2021/01/24 05:30:42;;;;;;;;;;;18.90;45.50;;;;;;5026337;28;20096;-38
2021/01/24 05:33:08;;;;;;;7.68;5.57;;;18.90;45.50;;;;;;5026496;28;19922;-38
2021/01/24 05:35:46;;;;;;;8.25;5.70;;;19.00;45.60;;;;;;5027588;28;20457;-39
2021/01/24 05:38:33;;;;;;;8.35;5.93;;;18.90;45.50;;;;;;5029036;28;20048;-39
2021/01/24 05:41:05;;;;;;;8.63;5.70;;;18.90;45.60;;;;;;5021092;28;20041;-38
2021/01/24 05:43:41;;;;;;;7.88;5.57;;;18.90;45.60;;;;;;5021821;28;20524;-39
2021/01/24 05:46:09;;;;;;;8.10;5.60;;;18.90;45.50;;;;;;5026625;28;20054;-38
2021/01/24 05:48:45;;;;;;;8.75;6.00;;;18.90;45.60;;;;;;5025876;28;20497;-38
2021/01/24 05:51:15;;;;;;;8.85;5.88;;;18.90;45.50;;;;;;5025928;28;20108;-41
2021/01/24 05:53:45;;;;;;;9.32;6.03;;;18.90;45.60;;;;;;5032341;28;20077;-39
2021/01/24 05:56:16;;;;;;;8.45;5.45;;;18.90;45.50;;;;;;5025751;28;20504;-39
2021/01/24 05:58:43;;;;;;;7.68;5.47;;;18.90;45.50;;;;;;5015952;28;20042;-38
2021/01/24 06:01:10;;;;;;;8.48;5.32;;;19.00;45.60;;;;;;5017925;28;20046;-39
2021/01/24 06:03:39;;;;;;;8.40;5.60;;;18.90;45.50;;;;;;5021454;28;20101;-40
2021/01/24 06:06:06;;;;;;;7.55;5.53;;;18.90;45.50;;;;;;5028006;28;20382;-40
2021/01/24 06:08:32;;;;;;;8.73;5.72;;;18.90;45.50;;;;;;5023212;28;20053;-40
2021/01/24 06:10:59;;;;;;;9.38;5.88;;;18.90;45.50;;;;;;5021790;28;20049;-40
2021/01/24 06:13:27;;;;;;;7.57;5.50;;;19.00;45.60;;;;;;5020863;28;20077;-39
2021/01/24 06:16:01;;;;;;;7.57;5.30;;;19.00;45.60;;;;;;5021326;28;20049;-39
2021/01/24 06:18:33;;;;;;;;;;;19.00;45.60;;;;;;5023061;28;20056;-38
2021/01/24 06:21:04;;;;;;;9.10;5.65;;;19.00;45.60;;;;;;5023316;28;20292;-38
2021/01/24 06:23:40;;;;;;;7.70;5.35;;;19.00;45.60;;;;;;5015769;28;20124;-38
2021/01/24 06:26:13;;;;;;;8.32;5.35;;;19.00;45.60;;;;;;5017342;28;20430;-41
2021/01/24 06:28:47;;;;;;;7.90;5.57;;;19.00;45.60;;;;;;5023229;28;20425;-38
2021/01/24 06:31:18;;;;;;;6.88;5.00;;;19.00;45.60;;;;;;5024609;28;20041;-40
2021/01/24 06:33:46;;;;;;;8.30;5.60;;;19.00;45.60;;;;;;5023591;28;20401;-39
2021/01/24 06:36:13;;;;;;;7.60;5.30;;;18.90;45.50;;;;;;5025336;28;20046;-39
2021/01/24 06:38:45;;;;;;;8.13;5.35;;;18.90;45.50;;;;;;5020618;28;20057;-40
2021/01/24 06:41:13;;;;;;;7.82;5.38;;;19.00;45.60;;;;;;5021205;28;20498;-39
2021/01/24 06:43:44;;;;;;;7.60;5.32;;;19.00;45.60;;;;;;5028859;28;20099;-39
2021/01/24 06:46:32;;;;;;;6.82;5.20;;;19.00;45.60;;;;;;5020815;28;20057;-39
2021/01/24 06:48:58;;;;;;;8.38;5.60;;;19.00;45.60;;;;;;5017787;28;20042;-39
2021/01/24 06:51:40;;;;;;;7.35;5.18;;;19.00;45.60;;;;;;5019144;28;20049;-44
2021/01/24 06:54:16;;;;;;;7.88;5.47;;;19.00;45.60;;;;;;5029862;28;20045;-42
2021/01/24 06:56:50;;;;;;;7.43;4.75;;;19.00;45.60;;;;;;5031032;28;20137;-40
2021/01/24 06:59:27;;;;;;;;;;;19.00;45.60;;;;;;5022178;28;20041;-42
2021/01/24 07:02:37;;;;;;;8.43;5.38;;;19.00;45.60;;;;;;5024726;28;19921;-43
2021/01/24 07:05:26;;;;;;;6.85;4.82;;;19.00;45.60;;;;;;5015480;28;20056;-40
2021/01/24 07:07:53;;;;;;;7.18;5.32;;;18.90;45.50;;;;;;5023868;28;20064;-40
2021/01/24 07:10:38;;;;;;;7.18;5.18;;;19.00;45.60;;;;;;5023805;28;20406;-41
2021/01/24 07:13:26;;;;;;;6.70;4.82;;;18.90;45.50;;;;;;5022204;28;20081;-39
2021/01/24 07:15:54;;;;;;;7.25;4.88;;;19.00;45.60;;;;;;5025220;28;20072;-40
2021/01/24 07:18:23;;;;;;;6.85;4.88;;;19.00;45.60;;;;;;5015226;28;20092;-39
2021/01/24 07:20:52;;;;;;;6.88;4.68;;;19.00;45.50;;;;;;5024559;28;20050;-39
2021/01/24 07:23:19;;;;;;;7.88;5.50;;;19.00;45.50;;;;;;5026906;28;20464;-40
2021/01/24 07:25:46;;;;;;;7.25;4.80;;;19.00;45.50;;;;;;5014595;28;20107;-39
2021/01/24 07:28:15;;;;;;;7.35;5.25;;;19.00;45.50;;;;;;5018698;28;20078;-39
2021/01/24 07:30:42;;;;;;;5.72;4.60;;;19.00;45.50;;;;;;5023111;28;20560;-40
2021/01/24 07:33:09;;;;;;;7.18;4.72;;;19.00;45.50;;;;;;5018935;28;20041;-38
2021/01/24 07:35:37;;;;;;;7.80;5.18;;;19.00;45.50;;;;;;5029459;28;20449;-40
2021/01/24 07:38:08;;;;;;;7.45;4.80;;;19.00;45.50;;;;;;5029209;28;20041;-41
2021/01/24 07:40:35;;;;;;;6.97;4.88;;;19.00;45.50;;;;;;5018340;28;20095;-40
2021/01/24 07:43:01;;;;;;;6.78;5.03;;;19.00;45.50;;;;;;5028180;28;20461;-41
2021/01/24 07:45:28;;;;;;;7.90;5.38;;;19.00;45.50;;;;;;5024556;28;20053;-39
2021/01/24 07:47:55;;;;;;;7.38;5.10;;;19.00;45.50;;;;;;5021764;28;20053;-38
2021/01/24 07:50:23;;;;;;;6.60;4.45;;;19.00;45.50;;;;;;5019908;28;20058;-38
2021/01/24 07:52:51;;;;;;;7.45;5.10;;;19.00;45.50;;;;;;5020798;28;20532;-39
2021/01/24 07:55:19;;;;;;;6.47;4.80;;;19.00;45.50;;;;;;5010438;28;20547;-39
2021/01/24 07:57:45;;;;;;;6.85;4.57;;;19.00;45.50;;;;;;5016837;28;20042;-41
2021/01/24 08:00:13;;;;;;;6.75;4.60;;;19.00;45.50;;;;;;5021322;28;20136;-40
2021/01/24 08:02:41;;;;;;;7.10;5.15;;;19.00;45.50;;;;;;5026117;28;20050;-42
2021/01/24 08:05:09;;;;;;;7.03;4.82;;;19.00;45.50;;;;;;5019338;28;20525;-42
2021/01/24 08:07:38;;;;;;;7.18;4.55;;;19.00;45.50;;;;;;5023299;28;20044;-39
2021/01/24 08:10:06;;;;;;;6.18;4.40;;;19.00;45.50;;;;;;5022316;28;20100;-38
2021/01/24 08:12:33;;;;;;;6.75;4.55;;;19.00;45.50;;;;;;5016816;28;20073;-43
2021/01/24 08:14:59;;;;;;;6.90;4.68;;;19.00;45.50;;;;;;5025855;28;20073;-41
2021/01/24 08:17:27;;;;;;;7.07;4.50;;;19.00;45.40;;;;;;5023990;28;20505;-38
2021/01/24 08:19:55;;;;;;;7.25;4.97;;;19.00;45.50;;;;;;5020733;28;20049;-38
2021/01/24 08:22:26;;;;;;;6.18;4.75;;;19.00;45.40;;;;;;5021355;28;20073;-41
2021/01/24 08:24:55;;;;;;;8.15;5.20;;;19.10;45.50;;;;;;5023350;28;20041;-39
2021/01/24 08:27:23;;;;;;;7.72;4.63;;;19.00;45.40;;;;;;5022850;28;20123;-39
2021/01/24 08:29:49;;;;;;;5.88;4.10;;;19.10;45.50;;;;;;5020541;28;20096;-39
2021/01/24 08:32:17;;;;;;;7.05;4.80;;;19.10;45.50;;;;;;5021230;28;20049;-39
2021/01/24 08:34:47;;;;;;;5.90;4.38;;;19.10;45.50;;;;;;5021572;28;20123;-41
2021/01/24 08:37:14;;;;;;;6.53;4.72;;;19.10;45.60;;;;;;5023685;28;20091;-38
2021/01/24 08:39:40;;;;;;;8.07;4.95;;;19.10;45.60;;;;;;5039312;28;20056;-40
2021/01/24 08:42:07;;;;;;;6.80;4.68;;;19.10;45.60;;;;;;5038928;28;20049;-39
2021/01/24 08:44:34;;;;;;;5.63;4.22;;;19.10;45.50;;;;;;5038906;28;20048;-40
2021/01/24 08:47:05;;;;;;;6.45;4.60;;;19.10;45.50;;;;;;5038508;28;20077;-38
2021/01/24 08:49:33;;;;;;;6.57;4.82;;;19.10;45.70;;;;;;5039332;28;20051;-39
2021/01/24 08:52:01;;;;;;;8.32;4.70;;;19.10;45.70;;;;;;5040524;28;20053;-39
2021/01/24 08:54:29;;;;;;;9.65;4.63;;;19.10;45.60;;;;;;5040251;28;20382;-39
2021/01/24 08:57:12;;;;;;;7.13;4.85;;;19.10;45.60;;;;;;5032854;28;20069;-40
2021/01/24 09:00:02;;;;;;;6.72;4.80;;;19.10;45.60;;;;;;5037436;28;20045;-56
2021/01/24 09:02:33;;;;;;;7.68;4.20;;;19.10;45.70;;;;;;5039595;28;20500;-52
2021/01/24 09:05:08;;;;;;;5.80;4.38;;;19.10;46.10;;;;;;5036681;28;20045;-45
2021/01/24 09:07:40;;;;;;;6.47;4.40;;;19.10;46.10;;;;;;5034806;28;20085;-42
2021/01/24 09:10:17;;;;;;;7.78;4.28;;;19.10;46.10;;;;;;5020538;28;20050;-42
2021/01/24 09:12:46;;;;;;;5.53;3.90;;;19.10;46.30;;;;;;5014358;28;20053;-51
2021/01/24 09:15:13;;;;;;;5.80;4.18;;;19.10;46.30;;;;;;5022350;28;20068;-49
2021/01/24 09:17:40;;;;;;;9.88;4.50;;;19.10;46.30;;;;;;5021768;28;20061;-38
2021/01/24 09:20:08;;;;;;;6.93;4.38;;;19.10;46.40;;;;;;5024124;28;20048;-47
2021/01/24 09:22:36;;;;;;;8.45;4.72;;;19.10;46.60;;;;;;5023299;28;20045;-40
2021/01/24 09:25:04;;;;;;;7.97;4.18;;;19.10;46.50;;;;;;5017529;28;20069;-38
2021/01/24 09:27:31;;;;;;;11.23;4.20;;;19.10;46.40;;;;;;5021792;28;20088;-58
2021/01/24 09:29:58;;;;;;;7.85;4.38;;;19.20;46.30;;;;;;5022915;28;20480;-38
2021/01/24 09:32:25;;;;;;;6.13;4.00;;;19.20;46.30;;;;;;5023547;28;20478;-38
2021/01/24 09:34:52;;;;;;;8.88;4.18;;;19.20;46.30;;;;;;5022758;28;20107;-39
2021/01/24 09:37:19;;;;;;;6.70;3.72;;;19.20;46.40;;;;;;5023094;28;20045;-38
2021/01/24 09:39:45;;;;;;;6.50;4.45;;;19.20;46.50;;;;;;5013040;28;20513;-38
2021/01/24 09:42:12;;;;;;;8.20;4.75;;;19.20;46.50;;;;;;5014123;28;20068;-38
2021/01/24 09:44:39;;;;;;;6.70;4.22;;;19.20;46.40;;;;;;5012943;28;20096;-38
2021/01/24 09:47:05;;;;;;;6.10;4.30;;;19.20;46.30;;;;;;5012727;28;20049;-39
2021/01/24 09:49:32;;;;;;;10.95;4.28;;;19.20;46.20;;;;;;5012755;28;20046;-38
2021/01/24 09:51:59;;;;;;;6.70;4.20;;;19.20;46.10;;;;;;5012826;28;20049;-38
2021/01/24 09:54:26;;;;;;;5.90;4.30;;;19.20;46.10;;;;;;5011426;28;20405;-38
2021/01/24 09:56:53;;;;;;;5.97;4.03;;;19.20;46.10;;;;;;5012291;28;20046;-38
2021/01/24 09:59:20;;;;;;;6.40;4.22;;;19.20;46.00;;;;;;5028029;28;20049;-38
2021/01/24 10:01:47;;;;;;;4.75;3.30;;;19.20;46.00;;;;;;5019445;28;20505;-40
2021/01/24 10:04:13;;;;;;;6.28;3.97;;;19.20;46.00;;;;;;5012348;28;20050;-42
2021/01/24 10:06:40;;;;;;;6.15;3.80;;;19.20;46.00;;;;;;5013537;28;20045;-41
2021/01/24 10:09:07;;;;;;;5.05;3.90;;;19.20;46.00;;;;;;5012170;28;20499;-38
2021/01/24 10:11:34;;;;;;;6.40;4.30;;;19.20;46.00;;;;;;5011905;28;20096;-38
2021/01/24 10:14:00;;;;;;;5.78;4.28;;;19.20;46.00;;;;;;5012309;28;20050;-38
2021/01/24 10:16:29;;;;;;;5.18;3.95;;;19.20;46.00;;;;;;5012456;28;20080;-38
2021/01/24 10:18:57;;;;;;;6.63;4.18;;;19.20;46.00;;;;;;5011946;28;20132;-39
2021/01/24 10:21:24;;;;;;;5.93;4.53;;;19.20;45.90;;;;;;5012192;28;20054;-38
2021/01/24 10:23:50;;;;;;;6.10;3.92;;;19.20;45.90;;;;;;5010926;28;20544;-38
2021/01/24 10:26:18;;;;;;;6.15;3.83;;;19.20;45.90;;;;;;5012350;28;20100;-38
2021/01/24 10:28:45;;;;;;;7.80;4.05;;;19.20;45.90;;;;;;5013504;28;20077;-38
2021/01/24 10:31:11;;;;;;;5.72;3.78;;;19.20;45.90;;;;;;5012499;28;20050;-38
2021/01/24 10:33:38;;;;;;;5.88;4.25;;;19.20;45.90;;;;;;5011719;28;20060;-38
2021/01/24 10:36:05;;;;;;;5.40;3.70;;;19.20;45.90;;;;;;5010851;28;20465;-38
2021/01/24 10:38:32;;;;;;;5.30;3.78;;;19.20;45.90;;;;;;5012021;28;20069;-38
2021/01/24 10:40:58;;;;;;;6.05;4.15;;;19.20;45.90;;;;;;5012762;28;20055;-38
2021/01/24 10:43:25;;;;;;;7.38;4.43;;;19.20;45.90;;;;;;5011767;28;20046;-38
2021/01/24 10:45:52;;;;;;;7.00;3.60;;;19.20;45.90;;;;;;5010512;28;20080;-38
2021/01/24 10:48:18;;;;;;;5.20;3.72;;;19.20;45.90;;;;;;5011970;28;20406;-38
2021/01/24 10:50:45;;;;;;;5.07;3.47;;;19.20;45.90;;;;;;5010538;28;20046;-38
2021/01/24 10:53:12;;;;;;;6.72;3.63;;;19.20;45.90;;;;;;4994747;28;20054;-38
2021/01/24 10:55:41;;;;;;;4.93;3.50;;;19.20;46.10;;;;;;5012704;28;20509;-41
2021/01/24 10:58:10;;;;;;;6.30;3.55;;;19.20;45.90;;;;;;5012915;28;20406;-39
2021/01/24 11:00:37;;;;;;;6.00;4.10;;;19.20;45.90;;;;;;5026380;28;20046;-38
2021/01/24 11:03:04;;;;;;;7.50;4.07;;;19.20;45.90;;;;;;5010235;28;20045;-38
2021/01/24 11:05:30;;;;;;;6.45;3.97;;;19.20;45.90;;;;;;5010580;28;20042;-39
2021/01/24 11:07:57;;;;;;;5.28;3.88;;;19.20;45.90;;;;;;5010312;28;20221;-39
2021/01/24 11:10:23;;;;;;;5.22;3.35;;;19.20;45.90;;;;;;5012445;28;20092;-39
2021/01/24 11:12:50;;;;;;;5.47;3.45;;;19.20;45.90;;;;;;5009928;28;20131;-38
2021/01/24 11:15:17;;;;;;;4.75;3.10;;;19.20;45.90;;;;;;5011490;28;20120;-38
2021/01/24 11:17:44;;;;;;;4.75;3.63;;;19.20;45.90;;;;;;5012233;28;20092;-39
2021/01/24 11:20:11;;;;;;;5.40;3.58;;;19.20;45.90;;;;;;4994833;28;20049;-38
2021/01/24 11:22:39;;;;;;;5.88;3.83;;;19.20;45.90;;;;;;5011536;28;20045;-39
2021/01/24 11:25:06;;;;;;;5.70;3.97;;;19.20;45.90;;;;;;5011577;28;20054;-38
2021/01/24 11:27:35;;;;;;;6.10;4.05;;;19.20;45.90;;;;;;5010944;28;20068;-40
2021/01/24 11:30:05;;;;;;;4.65;3.60;;;19.20;45.90;;;;;;5009927;28;20060;-39
2021/01/24 11:32:32;;;;;;;4.90;3.65;;;19.20;45.90;;;;;;5011037;28;20453;-38
2021/01/24 11:35:08;;;;;;;4.97;3.60;;;19.20;45.90;;;;;;5010900;28;20056;-38
2021/01/24 11:37:36;;;;;;;5.45;3.80;;;19.20;45.90;;;;;;5011109;28;20169;-38
2021/01/24 11:40:04;;;;;;;5.38;3.60;;;19.20;45.90;;;;;;5009311;28;20042;-40
2021/01/24 11:42:31;;;;;;;6.28;3.92;;;19.20;45.90;;;;;;5011066;28;20100;-39
2021/01/24 11:44:58;;;;;;;4.60;3.05;;;19.20;45.90;;;;;;5010530;28;20073;-38
2021/01/24 11:47:27;;;;;;;4.60;3.47;;;19.20;45.90;;;;;;5011008;28;20053;-39
2021/01/24 11:49:54;;;;;;;4.28;3.22;;;19.20;45.90;;;;;;4992292;28;20050;-38
2021/01/24 11:52:21;;;;;;;4.97;3.60;;;19.20;45.90;;;;;;5011410;28;20085;-38
2021/01/24 11:54:47;;;;;;;5.43;3.58;;;19.20;45.80;;;;;;5011085;28;20081;-39
2021/01/24 11:57:14;;;;;;;3.97;3.28;;;19.20;45.90;;;;;;5024914;28;20461;-38
2021/01/24 11:59:42;;;;;;;6.65;3.50;;;19.20;45.90;;;;;;5009328;28;20050;-38
2021/01/24 12:02:09;;;;;;;5.80;3.80;;;19.20;45.90;;;;;;5011288;28;20092;-39
2021/01/24 12:04:36;;;;;;;5.70;3.80;;;19.20;45.80;;;;;;5008998;28;20046;-38
2021/01/24 12:07:04;;;;;;;5.57;3.70;;;19.20;45.90;;;;;;5010152;28;20038;-38
2021/01/24 12:09:31;;;;;;;4.60;3.47;;;19.20;45.90;;;;;;5009301;28;20077;-38
2021/01/24 12:11:57;;;;;;;4.95;3.65;;;19.20;45.90;;;;;;5010389;28;20046;-38
2021/01/24 12:14:24;;;;;;;6.30;3.80;;;19.20;45.90;;;;;;5009249;28;20101;-38
2021/01/24 12:16:51;;;;;;;4.63;3.22;;;19.20;45.80;;;;;;5011008;28;20428;-39
2021/01/24 12:19:17;;;;;;;6.88;4.05;;;19.20;45.90;;;;;;5011733;28;20046;-37
2021/01/24 12:21:44;;;;;;;5.03;3.45;;;19.20;45.90;;;;;;5010533;28;20107;-38
2021/01/24 12:24:11;;;;;;;5.07;3.50;;;19.20;45.80;;;;;;5010597;28;20623;-38
2021/01/24 12:26:37;;;;;;;5.25;3.45;;;19.20;45.90;;;;;;5010011;28;20085;-38
2021/01/24 12:29:04;;;;;;;4.78;3.30;;;19.20;45.80;;;;;;5008871;28;20045;-37
2021/01/24 12:31:32;;;;;;;5.10;3.78;;;19.20;45.80;;;;;;5008898;28;20079;-41
2021/01/24 12:33:59;;;;;;;5.20;3.53;;;19.20;45.80;;;;;;5005111;28;20405;-38
2021/01/24 12:36:26;;;;;;;4.45;3.33;;;19.20;45.80;;;;;;4999245;28;20053;-39
2021/01/24 12:38:53;;;;;;;5.05;3.47;;;19.20;45.80;;;;;;5008544;28;20038;-39
2021/01/24 12:41:19;;;;;;;5.70;3.47;;;19.20;45.80;;;;;;5010807;28;20042;-41
2021/01/24 12:43:46;;;;;;;5.07;3.20;;;19.20;45.80;;;;;;5009962;28;20042;-39
2021/01/24 12:46:13;;;;;;;4.47;3.08;;;19.20;45.80;;;;;;5011554;28;20054;-40
2021/01/24 12:48:40;;;;;;;4.88;3.45;;;19.20;45.80;;;;;;5013887;28;20049;-38
2021/01/24 12:51:07;;;;;;;4.85;3.33;;;19.20;45.80;;;;;;5013880;28;20133;-37
2021/01/24 12:53:44;;;;;;;4.35;3.25;;;19.20;45.80;;;;;;5027624;28;20053;-40